createdAt,value
2024-04-19T08:19:38.280Z,50.00
2024-04-19T08:20:38.359Z,50.00
2024-04-19T08:21:38.299Z,50.00
2024-04-19T08:22:38.259Z,50.00
2024-04-19T08:23:38.267Z,50.00
2024-04-19T08:24:38.288Z,51.22
2024-04-19T08:25:38.264Z,53.08
2024-04-19T08:26:38.275Z,52.22
2024-04-19T08:27:38.309Z,51.23
2024-04-19T08:28:38.282Z,50.80
2024-04-19T08:29:38.291Z,50.00
2024-04-19T08:30:38.326Z,52.77
2024-04-19T08:31:38.274Z,51.36
2024-04-19T08:32:38.326Z,51.38
2024-04-19T08:33:38.349Z,52.96
2024-04-19T08:34:38.411Z,51.08
2024-04-19T08:35:38.504Z,57.19
2024-04-19T08:36:38.513Z,58.15
2024-04-19T08:37:38.594Z,56.69
2024-04-19T08:38:38.626Z,60.49
2024-04-19T08:39:38.751Z,68.57
2024-04-19T08:40:41.471Z,68.51
2024-04-19T08:41:38.738Z,64.70
2024-04-19T08:42:38.764Z,63.61
2024-04-19T08:43:38.733Z,68.49
2024-04-19T08:44:39.433Z,64.83
2024-04-19T08:45:38.769Z,69.06
2024-04-19T08:46:38.809Z,67.01
2024-04-19T08:47:38.838Z,70.61
2024-04-19T08:48:38.932Z,69.10
2024-04-19T08:49:38.836Z,69.52
2024-04-19T08:50:38.815Z,77.52
2024-04-19T08:51:54.071Z,75.04
2024-04-19T08:52:59.001Z,75.21
2024-04-19T08:53:39.859Z,75.14
2024-04-19T08:54:41.877Z,68.78
2024-04-19T08:55:38.839Z,69.59
2024-04-19T08:56:38.817Z,63.12
2024-04-19T08:57:38.837Z,58.29
2024-04-19T08:58:38.837Z,57.54
2024-04-19T08:59:38.835Z,56.98
2024-04-19T09:00:38.913Z,59.24
2024-04-19T09:01:38.904Z,59.96
2024-04-19T09:02:38.837Z,62.84
2024-04-19T09:03:38.951Z,61.13
2024-04-19T09:04:38.949Z,61.92
2024-04-19T09:05:38.896Z,61.87
2024-04-19T09:06:38.891Z,57.27
2024-04-19T09:07:38.911Z,54.32
2024-04-19T09:08:38.892Z,53.60
2024-04-19T09:09:39.044Z,51.65
2024-04-19T09:10:38.879Z,51.59
2024-04-19T09:11:38.907Z,52.08
2024-04-19T09:12:38.919Z,53.53
2024-04-19T09:13:38.884Z,54.80
2024-04-19T09:14:38.935Z,58.49
2024-04-19T09:15:39.043Z,59.82
2024-04-19T09:16:39.078Z,58.35
2024-04-19T09:17:39.150Z,57.73
2024-04-19T09:18:39.204Z,61.57
2024-04-19T09:19:39.230Z,61.14
2024-04-19T09:20:39.323Z,63.89
2024-04-19T09:21:39.418Z,64.13
2024-04-19T09:22:39.510Z,63.80
2024-04-19T09:23:39.591Z,62.51
2024-04-19T09:24:39.710Z,61.16
2024-04-19T09:25:39.798Z,60.63
2024-04-19T09:26:39.878Z,58.42
2024-04-19T09:27:40.058Z,59.03
2024-04-19T09:28:40.063Z,60.08
2024-04-19T09:29:40.139Z,59.29
2024-04-19T09:30:40.257Z,63.82
2024-04-19T09:31:40.319Z,59.45
2024-04-19T09:32:40.523Z,55.05
2024-04-19T09:33:40.567Z,55.14
2024-04-19T09:34:40.624Z,50.00
2024-04-19T09:35:40.702Z,50.49
2024-04-19T09:36:40.852Z,51.07
2024-04-19T09:37:40.919Z,50.96
2024-04-19T09:38:41.025Z,50.02
2024-04-19T09:39:41.089Z,50.00
2024-04-19T09:40:41.168Z,50.00
2024-04-19T09:41:41.293Z,52.22
2024-04-19T09:42:41.437Z,59.70
2024-04-19T09:43:41.472Z,61.75
2024-04-19T09:44:41.618Z,58.67
2024-04-19T09:45:41.696Z,62.93
2024-04-19T09:46:41.777Z,70.58
2024-04-19T09:47:41.873Z,73.41
2024-04-19T09:48:42.058Z,69.89
2024-04-19T09:49:42.170Z,37.10
2024-04-19T09:50:42.218Z,9.25
2024-04-19T09:51:42.343Z,0.00
2024-04-19T09:52:42.448Z,0.00
2024-04-19T09:53:43.475Z,0.00
2024-04-19T09:54:42.644Z,0.00
2024-04-19T09:55:42.774Z,0.00
2024-04-19T09:56:42.747Z,0.00
2024-04-19T09:57:42.897Z,0.00
2024-04-19T09:58:42.897Z,0.00
2024-04-19T09:59:42.994Z,0.00
2024-04-19T10:00:43.108Z,0.00
2024-04-19T10:01:43.215Z,0.00
2024-04-19T10:02:43.234Z,0.00
2024-04-19T10:03:43.400Z,0.00
2024-04-19T10:04:43.454Z,0.00
2024-04-19T10:05:43.528Z,0.00
2024-04-19T10:06:44.036Z,0.00
2024-04-19T10:08:26.296Z,50.00
2024-04-19T10:09:26.365Z,50.00
2024-04-19T10:10:26.298Z,50.00
2024-04-19T10:11:26.329Z,50.00
2024-04-19T10:12:26.313Z,50.00
2024-04-19T10:13:26.287Z,52.35
2024-04-19T10:14:26.297Z,45.18
2024-04-19T10:15:26.331Z,42.89
2024-04-19T10:16:26.317Z,50.59
2024-04-19T10:17:26.314Z,49.35
2024-04-19T10:18:26.390Z,50.96
2024-04-19T10:19:26.907Z,55.58
2024-04-19T10:20:26.348Z,73.72
2024-04-19T10:21:26.450Z,99.50
2024-04-19T10:22:26.329Z,133.52
2024-04-19T10:23:26.340Z,146.67
2024-04-19T10:24:26.406Z,127.17
2024-04-19T10:25:26.382Z,98.53
2024-04-19T10:26:26.355Z,92.03
2024-04-19T10:27:26.371Z,101.12
2024-04-19T10:28:26.386Z,101.34
2024-04-19T10:29:26.351Z,85.44
2024-04-19T10:30:34.514Z,91.39
2024-04-19T10:31:27.383Z,91.92
2024-04-19T10:32:26.363Z,91.69
2024-04-19T10:33:26.382Z,96.80
2024-04-19T10:34:26.378Z,104.97
2024-04-19T10:35:26.355Z,110.17
2024-04-19T10:36:26.383Z,141.73
2024-04-19T10:37:26.357Z,164.73
2024-04-19T10:38:26.382Z,178.53
2024-04-19T10:39:26.470Z,185.79
2024-04-19T10:40:26.376Z,194.26
2024-04-19T10:41:26.375Z,179.88
2024-04-19T10:42:26.393Z,176.57
2024-04-19T10:43:26.437Z,157.99
2024-04-19T10:44:26.500Z,125.07
2024-04-19T10:45:26.649Z,117.10
2024-04-19T10:46:26.671Z,114.41
2024-04-19T10:47:26.804Z,125.56
2024-04-19T10:48:29.008Z,131.66
2024-04-19T10:49:26.898Z,143.35
2024-04-19T10:50:26.965Z,159.76
2024-04-19T10:51:27.049Z,170.96
2024-04-19T10:52:27.106Z,181.32
2024-04-19T10:53:27.199Z,193.78
2024-04-19T10:54:27.302Z,195.70
2024-04-19T10:55:27.357Z,195.10
2024-04-19T10:56:27.432Z,199.54
2024-04-19T10:57:27.547Z,200.21
2024-04-19T10:58:27.563Z,199.82
2024-04-19T10:59:27.656Z,199.54
2024-04-19T11:00:27.891Z,200.00
2024-04-19T11:01:27.833Z,196.09
2024-04-19T11:02:28.079Z,195.91
2024-04-19T11:03:27.968Z,195.16
2024-04-19T11:04:28.094Z,192.37
2024-04-19T11:05:28.082Z,200.00
2024-04-19T11:06:28.185Z,196.47
2024-04-19T11:07:28.258Z,198.41
2024-04-19T11:08:28.278Z,200.00
2024-04-19T11:09:28.411Z,196.61
2024-04-19T11:10:28.417Z,199.03
2024-04-19T11:11:28.536Z,198.82
2024-04-19T11:12:28.623Z,185.93
2024-04-19T11:13:28.640Z,190.26
2024-04-19T11:14:28.705Z,188.89
2024-04-19T11:15:29.063Z,184.00
2024-04-19T11:16:28.842Z,181.95
2024-04-19T11:17:29.044Z,189.68
2024-04-19T11:18:29.147Z,189.27
2024-04-19T11:19:29.068Z,186.70
2024-04-19T11:20:29.141Z,186.43
2024-04-19T11:21:29.210Z,184.37
2024-04-19T11:22:29.304Z,181.24
2024-04-19T11:23:29.340Z,186.89
2024-04-19T11:24:29.433Z,183.43
2024-04-19T11:25:29.495Z,176.24
2024-04-19T11:26:29.603Z,164.67
2024-04-19T11:27:29.640Z,162.83
2024-04-19T11:28:29.721Z,165.82
2024-04-19T11:29:29.813Z,175.57
2024-04-19T11:30:29.923Z,184.15
2024-04-19T11:31:30.026Z,189.04
2024-04-19T11:32:30.216Z,196.46
2024-04-19T11:33:30.123Z,199.86
2024-04-19T11:34:30.216Z,200.00
2024-04-19T11:35:30.263Z,199.77
2024-04-19T11:36:30.356Z,200.00
2024-04-19T11:37:30.377Z,200.00
2024-04-19T11:38:30.487Z,199.21
2024-04-19T11:39:30.505Z,208.80
2024-04-19T11:40:30.581Z,218.60
2024-04-19T11:41:30.680Z,213.54
2024-04-19T11:42:30.708Z,207.68
2024-04-19T11:43:30.765Z,204.56
2024-04-19T11:44:30.859Z,199.58
2024-04-19T11:45:30.938Z,199.20
2024-04-19T11:46:31.130Z,198.86
2024-04-19T11:47:31.144Z,200.00
2024-04-19T11:48:31.249Z,200.00
2024-04-19T11:49:31.184Z,200.00
2024-04-19T11:50:31.301Z,200.00
2024-04-19T11:51:31.402Z,199.62
2024-04-19T11:52:31.410Z,200.04
2024-04-19T11:53:31.465Z,199.91
2024-04-19T11:54:31.554Z,199.59
2024-04-19T11:55:31.583Z,199.55
2024-04-19T11:56:31.726Z,196.87
2024-04-19T11:57:31.783Z,193.47
2024-04-19T11:58:31.832Z,191.92
2024-04-19T11:59:31.922Z,191.59
2024-04-19T12:00:32.042Z,191.05
2024-04-19T12:01:32.124Z,191.63
2024-04-19T12:02:32.148Z,191.04
2024-04-19T12:03:32.414Z,190.45
2024-04-19T12:04:32.412Z,191.31
2024-04-19T12:05:32.346Z,190.98
2024-04-19T12:06:32.424Z,192.39
2024-04-19T12:07:32.511Z,192.78
2024-04-19T12:08:32.469Z,189.80
2024-04-19T12:09:32.512Z,187.19
2024-04-19T12:10:32.534Z,186.95
2024-04-19T12:11:32.586Z,188.13
2024-04-19T12:13:09.749Z,187.40
2024-04-19T12:16:39.758Z,50.00
2024-04-19T12:17:30.436Z,50.00
2024-04-19T12:18:29.350Z,50.00
2024-04-19T12:19:28.765Z,50.00
2024-04-19T12:20:41.324Z,50.00
2024-04-19T12:21:29.668Z,50.00
2024-04-19T12:22:30.135Z,50.00
2024-04-19T12:23:29.927Z,50.00
2024-04-19T12:24:29.968Z,50.00
2024-04-19T12:25:29.219Z,50.00
2024-04-19T12:26:29.180Z,51.08
2024-04-19T12:27:29.043Z,51.01
2024-04-19T12:28:28.865Z,53.03
2024-04-19T12:29:28.990Z,51.80
2024-04-19T12:30:28.933Z,51.46
2024-04-19T12:31:28.920Z,50.67
2024-04-19T12:32:29.000Z,50.90
2024-04-19T12:33:29.053Z,50.45
2024-04-19T12:34:29.043Z,54.31
2024-04-19T12:35:29.117Z,50.00
2024-04-19T12:36:29.158Z,51.00
2024-04-19T12:37:29.175Z,51.47
2024-04-19T12:38:30.881Z,53.45
2024-04-19T12:39:29.262Z,56.57
2024-04-19T12:40:29.243Z,58.81
2024-04-19T12:41:29.299Z,63.51
2024-04-19T12:42:29.337Z,65.67
2024-04-19T12:43:29.356Z,64.13
2024-04-19T12:44:29.372Z,64.07
2024-04-19T12:45:29.490Z,63.55
2024-04-19T12:46:29.442Z,64.20
2024-04-19T12:47:29.553Z,64.25
2024-04-19T12:48:29.734Z,64.16
2024-04-19T12:49:29.709Z,65.67
2024-04-19T12:50:29.764Z,65.38
2024-04-19T12:51:29.927Z,67.72
2024-04-19T12:52:29.933Z,69.49
2024-04-19T12:53:30.055Z,67.39
2024-04-19T12:54:30.105Z,66.40
2024-04-19T12:55:30.204Z,66.03
2024-04-19T12:56:30.330Z,61.09
2024-04-19T12:57:30.372Z,58.49
2024-04-19T12:58:30.422Z,56.35
2024-04-19T12:59:30.495Z,54.60
2024-04-19T13:00:30.989Z,54.59
2024-04-19T13:01:30.700Z,56.39
2024-04-19T13:02:30.700Z,54.67
2024-04-19T13:03:30.803Z,55.56
2024-04-19T13:04:30.792Z,56.18
2024-04-19T13:05:30.784Z,55.75
2024-04-19T13:06:30.886Z,56.55
2024-04-19T13:07:30.859Z,62.89
2024-04-19T13:08:30.949Z,84.61
2024-04-19T13:09:30.923Z,115.48
2024-04-19T13:10:30.959Z,134.25
2024-04-19T13:11:31.008Z,154.03
2024-04-19T13:12:31.035Z,163.00
2024-04-19T13:13:31.091Z,174.84
2024-04-19T13:14:31.086Z,179.99
2024-04-19T13:15:31.191Z,189.09
2024-04-19T13:16:31.299Z,191.28
2024-04-19T13:17:31.251Z,196.10
2024-04-19T13:18:31.347Z,200.00
2024-04-19T13:19:31.432Z,198.18
2024-04-19T13:20:31.535Z,199.90
2024-04-19T13:21:31.636Z,193.98
2024-04-19T13:22:31.686Z,193.98
2024-04-19T13:23:31.783Z,194.20
2024-04-19T13:24:31.900Z,190.66
2024-04-19T13:25:31.944Z,186.53
2024-04-19T13:26:32.052Z,183.12
2024-04-19T13:27:32.151Z,182.06
2024-04-19T13:28:32.218Z,181.97
2024-04-19T13:29:32.330Z,176.77
2024-04-19T13:30:32.449Z,171.50
2024-04-19T13:31:32.595Z,172.63
2024-04-19T13:32:32.670Z,169.78
2024-04-19T13:33:32.670Z,165.37
2024-04-19T13:34:32.760Z,162.44
2024-04-19T13:35:32.879Z,156.97
2024-04-19T13:36:32.969Z,155.75
2024-04-19T13:37:33.055Z,150.46
2024-04-19T13:38:33.141Z,148.90
2024-04-19T13:39:33.275Z,144.76
2024-04-19T13:40:33.324Z,141.46
2024-04-19T13:41:33.432Z,141.54
2024-04-19T13:42:33.547Z,140.63
2024-04-19T13:43:33.626Z,140.55
2024-04-19T13:44:34.808Z,143.17
2024-04-19T13:45:33.851Z,140.84
2024-04-19T13:46:33.882Z,139.48
2024-04-19T13:47:34.226Z,139.41
2024-04-19T13:48:34.296Z,141.49
2024-04-19T13:49:34.217Z,139.04
2024-04-19T13:50:34.276Z,138.16
2024-04-19T13:51:34.404Z,138.42
2024-04-19T13:52:34.481Z,137.86
2024-04-19T13:53:34.534Z,137.11
2024-04-19T13:54:34.670Z,140.42
2024-04-19T13:55:34.752Z,142.88
2024-04-19T13:56:34.834Z,142.45
2024-04-19T13:57:34.951Z,136.41
2024-04-19T13:58:35.022Z,130.45
2024-04-19T13:59:35.122Z,130.52
2024-04-19T14:00:35.275Z,129.84
2024-04-19T14:01:35.400Z,129.24
2024-04-19T14:02:35.450Z,127.48
2024-04-19T14:03:35.530Z,123.55
2024-04-19T14:04:35.569Z,120.27
2024-04-19T14:05:35.713Z,119.46
2024-04-19T14:06:35.798Z,117.03
2024-04-19T14:07:35.862Z,114.98
2024-04-19T14:08:35.963Z,116.27
2024-04-19T14:09:36.077Z,116.70
2024-04-19T14:10:36.160Z,117.08
2024-04-19T14:11:36.241Z,116.88
2024-04-19T14:12:38.437Z,116.88
2024-04-19T14:13:36.346Z,114.83
2024-04-19T14:14:36.331Z,112.65
2024-04-19T14:15:36.326Z,109.69
2024-04-19T14:16:36.370Z,108.98
2024-04-19T14:17:36.401Z,108.09
2024-04-19T14:18:36.390Z,107.28
2024-04-19T14:19:36.348Z,105.19
2024-04-19T14:20:36.357Z,106.86
2024-04-19T14:21:36.403Z,106.20
2024-04-19T14:22:36.324Z,108.05
2024-04-19T14:23:36.371Z,107.15
2024-04-19T14:24:36.390Z,109.17
2024-04-19T14:25:36.372Z,110.75
2024-04-19T14:26:36.371Z,110.88
2024-04-19T14:27:36.353Z,111.49
2024-04-19T14:28:36.345Z,113.28
2024-04-19T14:29:36.374Z,109.84
2024-04-19T14:30:36.365Z,112.38
2024-04-19T14:31:36.337Z,112.88
2024-04-19T14:32:36.559Z,109.69
2024-04-19T14:33:36.378Z,109.38
2024-04-19T14:34:36.362Z,108.35
2024-04-19T14:35:36.389Z,103.35
2024-04-19T14:36:36.446Z,98.99
2024-04-19T14:37:36.367Z,97.82
2024-04-19T14:38:36.368Z,95.46
2024-04-19T14:39:36.479Z,96.93
2024-04-19T14:40:36.388Z,89.54
2024-04-19T14:41:36.414Z,91.08
2024-04-19T14:42:36.382Z,90.26
2024-04-19T14:43:36.370Z,85.61
2024-04-19T14:44:36.381Z,81.35
2024-04-19T14:45:36.391Z,81.38
2024-04-19T14:46:36.390Z,74.11
2024-04-19T14:47:36.484Z,67.43
2024-04-19T14:48:36.634Z,59.61
2024-04-19T14:49:36.441Z,50.00
2024-04-19T14:50:36.408Z,49.37
2024-04-19T14:51:36.604Z,52.15
2024-04-19T14:52:36.594Z,52.70
2024-04-19T14:53:36.682Z,56.05
2024-04-19T14:54:36.783Z,50.01
2024-04-19T14:55:36.886Z,50.00
2024-04-19T14:56:36.937Z,51.36
2024-04-19T14:57:37.027Z,50.10
2024-04-19T14:58:37.116Z,51.19
2024-04-19T14:59:37.227Z,50.00
2024-04-19T15:00:37.367Z,52.29
2024-04-19T15:01:37.510Z,54.06
2024-04-19T15:02:37.636Z,49.26
2024-04-19T15:03:37.658Z,50.19
2024-04-19T15:04:37.771Z,53.88
2024-04-19T15:05:37.790Z,51.38
2024-04-19T15:06:40.397Z,52.71
2024-04-19T15:07:37.860Z,50.78
2024-04-19T15:08:37.866Z,51.75
2024-04-19T15:09:37.904Z,52.22
2024-04-19T15:10:37.873Z,51.51
2024-04-19T15:11:37.945Z,52.93
2024-04-19T15:12:37.937Z,50.52
2024-04-19T15:13:37.884Z,50.00
2024-04-19T15:14:37.869Z,51.34
2024-04-19T15:15:37.925Z,50.41
2024-04-19T15:16:37.938Z,49.41
2024-04-19T15:17:38.002Z,50.40
2024-04-19T15:18:37.929Z,50.73
2024-04-19T15:19:37.897Z,50.46
2024-04-19T15:20:37.928Z,50.00
2024-04-19T15:21:37.953Z,50.00
2024-04-19T15:22:37.917Z,50.46
2024-04-19T15:23:37.916Z,53.92
2024-04-19T15:24:37.929Z,50.69
2024-04-19T15:25:38.918Z,50.48
2024-04-19T15:26:37.908Z,53.06
2024-04-19T15:27:37.962Z,50.07
2024-04-19T15:28:37.922Z,52.76
2024-04-19T15:29:37.935Z,49.66
2024-04-19T15:30:38.046Z,48.41
2024-04-19T15:31:37.969Z,47.35
2024-04-19T15:32:37.986Z,50.99
2024-04-19T15:33:38.104Z,53.11
2024-04-19T15:34:47.071Z,56.43
2024-04-19T15:35:38.936Z,56.57
2024-04-19T15:36:37.991Z,57.16
2024-04-19T15:37:37.940Z,58.21
2024-04-19T15:38:37.920Z,56.67
2024-04-19T15:39:37.947Z,58.85
2024-04-19T15:40:37.959Z,57.24
2024-04-19T15:41:44.677Z,52.11
2024-04-19T15:42:38.990Z,52.11
2024-04-19T15:43:37.989Z,44.83
2024-04-19T15:44:37.962Z,41.83
2024-04-19T15:45:37.981Z,45.11
2024-04-19T15:46:37.987Z,45.86
2024-04-19T15:47:38.040Z,50.00
2024-04-19T15:48:38.023Z,50.00
2024-04-19T15:49:38.024Z,51.80
2024-04-19T15:50:38.035Z,50.83
2024-04-19T15:51:38.011Z,50.91
2024-04-19T15:52:38.031Z,52.76
2024-04-19T15:53:38.033Z,54.11
2024-04-19T15:54:38.144Z,56.16
2024-04-19T15:55:38.217Z,56.80
2024-04-19T15:56:38.289Z,57.47
2024-04-19T15:57:38.418Z,57.11
2024-04-19T15:58:38.487Z,56.97
2024-04-19T15:59:38.587Z,54.96
2024-04-19T16:00:38.753Z,54.43
2024-04-19T16:01:38.854Z,54.04
2024-04-19T16:02:38.915Z,54.60
2024-04-19T16:03:39.093Z,51.51
2024-04-19T16:04:39.259Z,50.94
2024-04-19T16:05:39.199Z,50.82
2024-04-19T16:06:39.314Z,53.00
2024-04-19T16:07:39.383Z,53.88
2024-04-19T16:08:39.455Z,53.20
2024-04-19T16:09:39.582Z,55.21
2024-04-19T16:10:39.717Z,52.96
2024-04-19T16:11:39.758Z,54.67
2024-04-19T16:12:39.864Z,53.79
2024-04-19T16:13:39.973Z,52.82
2024-04-19T16:14:40.077Z,50.95
2024-04-19T16:15:40.221Z,51.59
2024-04-19T16:16:40.272Z,55.21
2024-04-19T16:17:40.430Z,52.28
2024-04-19T16:18:40.458Z,49.63
2024-04-19T16:19:40.535Z,51.40
2024-04-19T16:20:40.617Z,50.86
2024-04-19T16:21:40.743Z,50.41
2024-04-19T16:22:40.803Z,50.00
2024-04-19T16:23:40.887Z,50.46
2024-04-19T16:24:40.986Z,50.89
2024-04-19T16:25:41.079Z,52.06
2024-04-19T16:26:41.175Z,51.86
2024-04-19T16:27:41.324Z,52.02
2024-04-19T16:28:41.360Z,53.44
2024-04-19T16:29:41.469Z,53.51
2024-04-19T16:30:41.622Z,54.39
2024-04-19T16:31:41.675Z,55.75
2024-04-19T16:32:41.856Z,53.50
2024-04-19T16:33:41.992Z,50.99
2024-04-19T16:34:42.044Z,51.64
2024-04-19T16:35:51.378Z,53.45
2024-04-19T16:36:43.100Z,51.76
2024-04-19T16:37:42.068Z,51.90
2024-04-19T16:38:42.075Z,51.39
2024-04-19T16:39:42.131Z,50.39
2024-04-19T16:40:42.095Z,51.45
2024-04-19T16:41:42.127Z,52.97
2024-04-19T16:42:42.186Z,52.91
2024-04-19T16:43:42.146Z,53.85
2024-04-19T16:44:42.131Z,55.39
2024-04-19T16:45:42.166Z,58.40
2024-04-19T16:46:42.144Z,59.96
2024-04-19T16:47:42.204Z,62.67
2024-04-19T16:48:42.165Z,62.81
2024-04-19T16:49:42.215Z,63.43
2024-04-19T16:50:42.182Z,65.18
2024-04-19T16:51:42.204Z,64.47
2024-04-19T16:52:42.183Z,65.61
2024-04-19T16:53:42.146Z,66.62
2024-04-19T16:54:42.230Z,68.11
2024-04-19T16:55:42.259Z,64.75
2024-04-19T16:56:42.394Z,63.36
2024-04-19T16:57:42.498Z,64.29
2024-04-19T16:58:42.557Z,66.93
2024-04-19T16:59:42.627Z,69.73
2024-04-19T17:00:42.866Z,72.18
2024-04-19T17:01:42.954Z,72.76
2024-04-19T17:02:42.962Z,67.58
2024-04-19T17:03:43.115Z,56.34
2024-04-19T17:04:43.189Z,51.12
2024-04-19T17:05:43.307Z,48.89
2024-04-19T17:06:43.439Z,50.17
2024-04-19T17:07:43.558Z,49.70
2024-04-19T17:08:43.683Z,49.96
2024-04-19T17:09:43.726Z,49.97
2024-04-19T17:10:43.809Z,49.66
2024-04-19T17:11:43.906Z,49.91
2024-04-19T17:12:44.084Z,50.06
2024-04-19T17:13:44.150Z,49.07
2024-04-19T17:14:44.258Z,49.72
2024-04-19T17:15:44.417Z,50.56
2024-04-19T17:16:44.315Z,50.00
2024-04-19T17:17:44.449Z,50.02
2024-04-19T17:18:44.563Z,49.88
2024-04-19T17:19:44.568Z,50.00
2024-04-19T17:20:44.650Z,49.77
2024-04-19T17:21:44.787Z,50.17
2024-04-19T17:22:44.830Z,50.00
2024-04-19T17:23:44.897Z,50.00
2024-04-19T17:24:44.994Z,50.00
2024-04-19T17:25:45.159Z,50.00
2024-04-19T17:26:45.317Z,50.26
2024-04-19T17:27:45.561Z,50.13
2024-04-19T17:28:45.534Z,49.85
2024-04-19T17:29:45.609Z,50.26
2024-04-19T17:30:45.698Z,50.32
2024-04-19T17:31:45.717Z,50.09
2024-04-19T17:32:45.969Z,50.51
2024-04-19T17:33:46.042Z,50.20
2024-04-19T17:34:45.982Z,50.66
2024-04-19T17:35:46.118Z,50.59
2024-04-19T17:36:46.254Z,50.07
2024-04-19T17:37:46.344Z,50.14
2024-04-19T17:38:46.384Z,50.57
2024-04-19T17:39:46.456Z,50.00
2024-04-19T17:40:46.482Z,50.23
2024-04-19T17:41:46.601Z,50.26
2024-04-19T17:42:46.785Z,50.11
2024-04-19T17:43:46.849Z,50.98
2024-04-19T17:44:46.921Z,50.91
2024-04-19T17:45:47.131Z,50.00
2024-04-19T17:46:47.083Z,50.53
2024-04-19T17:47:47.240Z,52.28
2024-04-19T17:48:47.253Z,52.62
2024-04-19T17:49:47.287Z,52.40
2024-04-19T17:50:47.346Z,50.87
2024-04-19T17:51:47.422Z,50.80
2024-04-19T17:52:47.489Z,50.00
2024-04-19T17:53:47.553Z,50.40
2024-04-19T17:54:47.640Z,50.07
2024-04-19T17:55:47.696Z,50.27
2024-04-19T17:56:47.777Z,50.17
2024-04-19T17:57:49.737Z,50.84
2024-04-19T17:58:47.834Z,50.46
2024-04-19T17:59:47.848Z,51.54
2024-04-19T18:00:47.938Z,51.37
2024-04-19T18:01:47.908Z,50.87
2024-04-19T18:02:47.879Z,50.38
2024-04-19T18:03:47.927Z,50.65
2024-04-19T18:04:47.941Z,50.24
2024-04-19T18:05:47.900Z,50.09
2024-04-19T18:06:47.904Z,50.97
2024-04-19T18:07:47.875Z,50.08
2024-04-19T18:08:47.859Z,50.56
2024-04-19T18:09:47.881Z,51.16
2024-04-19T18:10:47.993Z,50.96
2024-04-19T18:11:47.859Z,50.17
2024-04-19T18:12:47.930Z,50.61
2024-04-19T18:13:47.886Z,50.13
2024-04-19T18:14:47.881Z,50.86
2024-04-19T18:15:47.937Z,50.68
2024-04-19T18:16:47.911Z,51.43
2024-04-19T18:17:50.521Z,52.36
2024-04-19T18:18:48.057Z,50.34
2024-04-19T18:19:47.895Z,50.72
2024-04-19T18:20:47.915Z,50.07
2024-04-19T18:21:48.009Z,49.66
2024-04-19T18:22:47.940Z,49.03
2024-04-19T18:23:47.952Z,50.54
2024-04-19T18:24:47.984Z,50.92
2024-04-19T18:25:47.953Z,50.44
2024-04-19T18:26:47.959Z,50.25
2024-04-19T18:27:47.983Z,50.02
2024-04-19T18:28:47.959Z,49.99
2024-04-19T18:29:47.950Z,50.87
2024-04-19T18:30:47.990Z,50.89
2024-04-19T18:31:47.973Z,50.30
2024-04-19T18:32:47.969Z,50.20
2024-04-19T18:33:48.104Z,50.81
2024-04-19T18:34:47.936Z,49.73
2024-04-19T18:35:47.995Z,50.22
2024-04-19T18:36:47.981Z,51.47
2024-04-19T18:37:47.947Z,51.02
2024-04-19T18:38:47.966Z,51.16
2024-04-19T18:39:47.994Z,50.82
2024-04-19T18:40:47.964Z,50.43
2024-04-19T18:41:47.973Z,50.35
2024-04-19T18:42:48.010Z,50.00
2024-04-19T18:43:48.011Z,50.00
2024-04-19T18:44:48.038Z,50.12
2024-04-19T18:45:48.099Z,50.47
2024-04-19T18:46:47.994Z,50.96
2024-04-19T18:47:48.074Z,51.29
2024-04-19T18:48:48.203Z,50.63
2024-04-19T18:49:48.032Z,50.00
2024-04-19T18:50:48.028Z,49.84
2024-04-19T18:51:48.064Z,50.87
2024-04-19T18:52:48.024Z,50.28
2024-04-19T18:53:48.038Z,50.54
2024-04-19T18:54:48.118Z,51.68
2024-04-19T18:55:48.016Z,50.54
2024-04-19T18:56:48.076Z,50.39
2024-04-19T18:57:48.052Z,50.20
2024-04-19T18:58:48.099Z,51.06
2024-04-19T18:59:48.054Z,51.05
2024-04-19T19:00:49.082Z,50.38
2024-04-19T19:01:48.130Z,50.26
2024-04-19T19:02:48.242Z,50.90
2024-04-19T19:03:48.508Z,50.68
2024-04-19T19:04:48.342Z,51.25
2024-04-19T19:05:48.441Z,51.34
2024-04-19T19:06:48.540Z,51.79
2024-04-19T19:07:48.576Z,52.97
2024-04-19T19:08:48.683Z,53.00
2024-04-19T19:09:48.816Z,53.57
2024-04-19T19:10:48.958Z,53.12
2024-04-19T19:11:48.939Z,53.48
2024-04-19T19:12:49.104Z,52.26
2024-04-19T19:13:49.101Z,52.78
2024-04-19T19:14:49.215Z,51.67
2024-04-19T19:15:49.358Z,51.26
2024-04-19T19:16:49.384Z,50.92
2024-04-19T19:17:49.508Z,52.12
2024-04-19T19:18:49.649Z,53.90
2024-04-19T19:19:49.624Z,54.52
2024-04-19T19:20:49.755Z,54.97
2024-04-19T19:21:49.850Z,53.94
2024-04-19T19:22:49.890Z,54.67
2024-04-19T19:23:50.013Z,53.99
2024-04-19T19:24:50.183Z,53.92
2024-04-19T19:25:50.178Z,54.01
2024-04-19T19:26:50.269Z,53.85
2024-04-19T19:27:50.412Z,52.47
2024-04-19T19:28:50.461Z,52.43
2024-04-19T19:29:50.527Z,51.97
2024-04-19T19:30:50.672Z,51.68
2024-04-19T19:31:50.788Z,49.92
2024-04-19T19:32:50.915Z,51.62
2024-04-19T19:33:50.949Z,51.03
2024-04-19T19:34:51.046Z,50.90
2024-04-19T19:35:51.114Z,50.73
2024-04-19T19:36:51.379Z,50.76
2024-04-19T19:37:51.338Z,51.29
2024-04-19T19:38:51.408Z,50.49
2024-04-19T19:39:51.546Z,50.45
2024-04-19T19:40:51.636Z,50.66
2024-04-19T19:41:51.717Z,50.14
2024-04-19T19:42:51.843Z,49.84
2024-04-19T19:43:51.945Z,49.89
2024-04-19T19:44:52.002Z,50.51
2024-04-19T19:45:52.092Z,51.24
2024-04-19T19:46:52.216Z,53.50
2024-04-19T19:47:52.461Z,53.15
2024-04-19T19:48:52.414Z,52.99
2024-04-19T19:49:52.515Z,51.84
2024-04-19T19:50:52.607Z,52.04
2024-04-19T19:51:52.732Z,52.17
2024-04-19T19:52:52.808Z,52.20
2024-04-19T19:53:52.908Z,51.19
2024-04-19T19:54:53.012Z,50.43
2024-04-19T19:55:53.077Z,50.23
2024-04-19T19:56:53.187Z,50.92
2024-04-19T19:57:53.304Z,50.65
2024-04-19T19:58:53.425Z,50.08
2024-04-19T19:59:53.525Z,50.22
2024-04-19T20:00:53.705Z,49.89
2024-04-19T20:01:53.825Z,50.42
2024-04-19T20:02:53.814Z,50.21
2024-04-19T20:03:54.083Z,50.64
2024-04-19T20:04:54.005Z,50.01
2024-04-19T20:05:54.111Z,50.56
2024-04-19T20:06:54.266Z,51.18
2024-04-19T20:07:54.355Z,51.29
2024-04-19T20:08:54.442Z,51.26
2024-04-19T20:09:54.646Z,51.58
2024-04-19T20:10:54.729Z,50.93
2024-04-19T20:11:54.800Z,51.32
2024-04-19T20:12:54.944Z,53.52
2024-04-19T20:13:55.002Z,54.97
2024-04-19T20:14:55.129Z,56.00
2024-04-19T20:15:55.271Z,57.15
2024-04-19T20:16:55.328Z,56.25
2024-04-19T20:17:56.134Z,55.86
2024-04-19T20:18:55.762Z,56.11
2024-04-19T20:19:55.659Z,55.55
2024-04-19T20:20:55.771Z,55.65
2024-04-19T20:21:55.915Z,54.60
2024-04-19T20:22:56.002Z,55.63
2024-04-19T20:23:56.109Z,54.50
2024-04-19T20:24:56.286Z,53.56
2024-04-19T20:25:56.320Z,53.43
2024-04-19T20:26:56.426Z,53.16
2024-04-19T20:27:56.568Z,52.41
2024-04-19T20:28:56.625Z,52.18
2024-04-19T20:29:56.740Z,51.95
2024-04-19T20:30:56.878Z,52.62
2024-04-19T20:31:56.907Z,52.58
2024-04-19T20:32:57.148Z,52.73
2024-04-19T20:33:57.195Z,52.15
2024-04-19T20:34:57.230Z,52.29
2024-04-19T20:35:57.355Z,52.55
2024-04-19T20:36:57.441Z,52.21
2024-04-19T20:37:57.542Z,52.32
2024-04-19T20:38:57.653Z,52.09
2024-04-19T20:39:57.812Z,52.03
2024-04-19T20:40:57.850Z,52.74
2024-04-19T20:41:57.962Z,51.32
2024-04-19T20:43:06.437Z,51.51
2024-04-19T20:43:59.092Z,51.06
2024-04-19T20:44:58.086Z,50.51
2024-04-19T20:45:58.181Z,50.48
2024-04-19T20:46:58.067Z,49.75
2024-04-19T20:47:58.177Z,48.93
2024-04-19T20:48:58.229Z,50.57
2024-04-19T20:49:58.125Z,50.86
2024-04-19T20:50:58.111Z,51.30
2024-04-19T20:51:58.162Z,50.49
2024-04-19T20:52:58.249Z,50.14
2024-04-19T20:53:58.355Z,51.03
2024-04-19T20:54:58.476Z,50.70
2024-04-19T20:55:58.567Z,50.84
2024-04-19T20:56:58.668Z,51.53
2024-04-19T20:57:58.872Z,52.37
2024-04-19T20:58:58.903Z,52.03
2024-04-19T20:59:58.988Z,52.92
2024-04-19T21:00:59.161Z,53.02
2024-04-19T21:01:59.290Z,53.01
2024-04-19T21:02:59.346Z,52.93
2024-04-19T21:03:59.511Z,52.49
2024-04-19T21:04:59.476Z,51.85
2024-04-19T21:05:59.606Z,52.27
2024-04-19T21:06:59.761Z,54.61
2024-04-19T21:07:59.807Z,54.50
2024-04-19T21:08:59.914Z,53.86
2024-04-19T21:10:00.190Z,54.62
2024-04-19T21:11:00.217Z,55.65